La Tuna Canyon, California
Current Conditions -  °F | °C
As of 4:51 AM on Monday 20 Oct 2014 (Local Time) from KBUR Reporting Station
Haze Haze  
Wind Chill: 63°   Ceiling: 400
Heat Index: 63°   Visibility: 1.5mi
Dew Point: 57°   Wind: 5mph
Humidity: 82%   Direction: 330°NNW
Pressure: 29.89"   Gusts: NA
Location:  34.2294°N, 118.357°W
Report Text: KBUR 201151Z 33004KT 1 1/2SM BR OVC004 17/14 A2989 RMK AO2
Loading
Personal Weather Stations






























Interactive Weather Map
Tropical Storm Tracking
New forecast layout! Learn more

10-Day Weather Forecast

Advertisements
Track Severe Weather on mobile